Historique des mesures à Cassis (13260), France
Quotidien Résumé Fevrier 3, 2017 Unités:  US    Métrique   Métrique/US
« Précédent (Jour)
Suivant (Jour) »
Quotidien Hebdomadaire Mensuel Annuel Période au choix
  Maximum: Minimum: Moyenne:
Température: 32 °F 49.1 °F 53.4 °F
Point de rosée: 32 °F 39.7 °F 46 °F
Humidité: Humidity % 61 % 72 %
Vitesse du vent: WindSpeedKMH mph 0.0 mph 2.7 mph
Rafales: WindSpeedGustKMH mph - -
Vent:- - WSW
Pression: 0 in 29.8 in -
Précipitations: 50.8 in    
Historical Graphs
 
 
Mesures pour : Fevrier 3, 2017
Heure Temperature Point de rosée Pression Vent Vitesse du vent Rafales Humidité Pluie (par heure) Conditions
32 °F 32 °F 0 in Calm     Humidity % 0 in SoftwareType W/m2
00:10 56.5 °F 51.6 °F 29.8 in Calm     84 % 25.4 in open2300-1.11 W/m2
01:11 56.1 °F 51.3 °F 29.8 in SW 5.8 mph 5.8 mph 84 % 0 in open2300-1.11 W/m2
02:10 56.5 °F 52 °F 29.8 in SSW 9.3 mph 9.3 mph 85 % 0 in open2300-1.11 W/m2
03:11 56.7 °F 52.2 °F 29.8 in ESE 1.4 mph 1.4 mph 85 % 0 in open2300-1.11 W/m2
04:10 55.2 °F 49.8 °F 29.8 in Calm     82 % 0 in open2300-1.11 W/m2
05:11 53.2 °F 45.9 °F 29.8 in Calm   4.7 mph 76 % 0 in open2300-1.11 W/m2
06:10 50.5 °F 43.2 °F 29.8 in NNW 1.4 mph 4.3 mph 76 % 0 in open2300-1.11 W/m2
07:11 49.8 °F 43.2 °F 29.8 in Calm     78 % 0 in open2300-1.11 W/m2
08:10 49.1 °F 42.8 °F 29.8 in Calm     79 % 0 in open2300-1.11 W/m2
09:11 51.6 °F 45.3 °F 29.8 in Calm     79 % 0 in open2300-1.11 W/m2
10:10 53.4 °F 46.8 °F 29.8 in Calm     78 % 0 in open2300-1.11 W/m2
11:11 55.2 °F 48 °F 29.8 in Calm     77 % 0 in open2300-1.11 W/m2
12:10 56.1 °F 48.6 °F 29.8 in Calm   3.5 mph 76 % 0 in open2300-1.11 W/m2
13:11 57.4 °F 47.1 °F 29.8 in Calm   3.2 mph 69 % 0 in open2300-1.11 W/m2
14:10 57.4 °F 49.1 °F 29.8 in Calm     74 % 0 in open2300-1.11 W/m2
15:11 57.2 °F 49.3 °F 29.8 in Calm   4.3 mph 75 % 0 in open2300-1.11 W/m2
16:10 57.4 °F 49.1 °F 29.8 in Calm     74 % 0 in open2300-1.11 W/m2
17:11 55.6 °F 49.1 °F 29.8 in Calm     79 % 50.8 in open2300-1.11 W/m2
18:10 54.7 °F 48.4 °F 29.8 in WSW 1.4 mph 9.7 mph 79 % 0 in open2300-1.11 W/m2
19:11 54 °F 43.5 °F 29.8 in NNW 14.8 mph 14.8 mph 68 % 0 in open2300-1.11 W/m2
20:10 54 °F 41.5 °F 29.8 in NW 32.3 mph 32.3 mph 63 % 0 in open2300-1.11 W/m2
21:11 52.9 °F 39.7 °F 29.8 in Calm   7.2 mph 61 % 0 in open2300-1.11 W/m2
22:10 53.2 °F 40.5 °F 29.8 in Calm     62 % 0 in open2300-1.11 W/m2
23:11 52 °F 40.5 °F 29.8 in Calm     65 % 0 in open2300-1.11 W/m2
Observations météo à CASSIS
WU-History script by Weather Underground - 1 mb